sensor_id;sensor_type;location;lat;lon;timestamp;temperature;humidity
69324;DHT22;56470;47.350;8.718;2024-02-28T00:00:46;8.68;74.47
69324;DHT22;56470;47.350;8.718;2024-02-28T00:03:11;8.74;74.04
69324;DHT22;56470;47.350;8.718;2024-02-28T00:05:37;8.76;74.05
69324;DHT22;56470;47.350;8.718;2024-02-28T00:08:02;8.77;73.68
69324;DHT22;56470;47.350;8.718;2024-02-28T00:10:28;8.81;73.46
69324;DHT22;56470;47.350;8.718;2024-02-28T00:12:53;8.76;73.73
69324;DHT22;56470;47.350;8.718;2024-02-28T00:15:18;8.74;73.83
69324;DHT22;56470;47.350;8.718;2024-02-28T00:17:44;8.76;74.13
69324;DHT22;56470;47.350;8.718;2024-02-28T00:20:09;8.77;74.15
69324;DHT22;56470;47.350;8.718;2024-02-28T00:22:36;8.78;74.20
69324;DHT22;56470;47.350;8.718;2024-02-28T00:25:02;8.81;74.33
69324;DHT22;56470;47.350;8.718;2024-02-28T00:27:27;8.81;74.17
69324;DHT22;56470;47.350;8.718;2024-02-28T00:29:53;8.80;74.17
69324;DHT22;56470;47.350;8.718;2024-02-28T00:32:18;8.83;73.79
69324;DHT22;56470;47.350;8.718;2024-02-28T00:34:43;8.83;74.06
69324;DHT22;56470;47.350;8.718;2024-02-28T00:37:09;8.85;73.63
69324;DHT22;56470;47.350;8.718;2024-02-28T00:39:34;8.84;74.11
69324;DHT22;56470;47.350;8.718;2024-02-28T00:41:59;8.87;73.79
69324;DHT22;56470;47.350;8.718;2024-02-28T00:44:25;8.85;73.84
69324;DHT22;56470;47.350;8.718;2024-02-28T00:46:50;8.84;74.28
69324;DHT22;56470;47.350;8.718;2024-02-28T00:49:15;8.77;73.90
69324;DHT22;56470;47.350;8.718;2024-02-28T00:51:41;8.71;74.05
69324;DHT22;56470;47.350;8.718;2024-02-28T00:54:06;8.67;74.41
69324;DHT22;56470;47.350;8.718;2024-02-28T00:56:33;8.64;74.53
69324;DHT22;56470;47.350;8.718;2024-02-28T00:58:59;8.66;74.23
69324;DHT22;56470;47.350;8.718;2024-02-28T01:01:24;8.66;74.63
69324;DHT22;56470;47.350;8.718;2024-02-28T01:03:49;8.64;74.67
69324;DHT22;56470;47.350;8.718;2024-02-28T01:06:15;8.66;74.74
69324;DHT22;56470;47.350;8.718;2024-02-28T01:08:44;8.64;74.46
69324;DHT22;56470;47.350;8.718;2024-02-28T01:11:10;8.67;74.41
69324;DHT22;56470;47.350;8.718;2024-02-28T01:13:35;8.67;74.15
69324;DHT22;56470;47.350;8.718;2024-02-28T01:16:00;8.67;74.96
69324;DHT22;56470;47.350;8.718;2024-02-28T01:18:26;8.70;74.21
69324;DHT22;56470;47.350;8.718;2024-02-28T01:20:53;8.71;74.63
69324;DHT22;56470;47.350;8.718;2024-02-28T01:23:19;8.80;74.50
69324;DHT22;56470;47.350;8.718;2024-02-28T01:25:44;8.91;74.22
69324;DHT22;56470;47.350;8.718;2024-02-28T01:28:10;9.01;73.83
69324;DHT22;56470;47.350;8.718;2024-02-28T01:30:35;9.05;73.75
69324;DHT22;56470;47.350;8.718;2024-02-28T01:33:00;9.08;73.70
69324;DHT22;56470;47.350;8.718;2024-02-28T01:35:26;9.08;73.50
69324;DHT22;56470;47.350;8.718;2024-02-28T01:37:51;9.10;73.71
69324;DHT22;56470;47.350;8.718;2024-02-28T01:40:16;9.12;73.52
69324;DHT22;56470;47.350;8.718;2024-02-28T01:42:42;9.15;73.38
69324;DHT22;56470;47.350;8.718;2024-02-28T01:45:10;9.15;73.18
69324;DHT22;56470;47.350;8.718;2024-02-28T01:47:38;9.11;73.29
69324;DHT22;56470;47.350;8.718;2024-02-28T01:50:04;9.00;73.45
69324;DHT22;56470;47.350;8.718;2024-02-28T01:52:30;8.95;73.81
69324;DHT22;56470;47.350;8.718;2024-02-28T01:54:56;8.95;73.99
69324;DHT22;56470;47.350;8.718;2024-02-28T01:57:22;8.92;73.96
69324;DHT22;56470;47.350;8.718;2024-02-28T01:59:47;8.95;73.91
69324;DHT22;56470;47.350;8.718;2024-02-28T02:02:13;9.00;73.89
69324;DHT22;56470;47.350;8.718;2024-02-28T02:04:38;9.05;73.82
69324;DHT22;56470;47.350;8.718;2024-02-28T02:07:04;9.07;73.72
69324;DHT22;56470;47.350;8.718;2024-02-28T02:09:31;9.11;73.55
69324;DHT22;56470;47.350;8.718;2024-02-28T02:11:57;9.19;73.49
69324;DHT22;56470;47.350;8.718;2024-02-28T02:14:22;9.32;73.25
69324;DHT22;56470;47.350;8.718;2024-02-28T02:16:47;9.38;73.11
69324;DHT22;56470;47.350;8.718;2024-02-28T02:19:13;9.36;72.95
69324;DHT22;56470;47.350;8.718;2024-02-28T02:21:41;9.33;72.67
69324;DHT22;56470;47.350;8.718;2024-02-28T02:24:08;9.32;72.66
69324;DHT22;56470;47.350;8.718;2024-02-28T02:26:34;9.28;72.97
69324;DHT22;56470;47.350;8.718;2024-02-28T02:28:59;9.32;72.98
69324;DHT22;56470;47.350;8.718;2024-02-28T02:31:25;9.28;72.97
69324;DHT22;56470;47.350;8.718;2024-02-28T02:33:50;9.26;72.91
69324;DHT22;56470;47.350;8.718;2024-02-28T02:36:15;9.25;73.04
69324;DHT22;56470;47.350;8.718;2024-02-28T02:38:41;9.25;73.03
69324;DHT22;56470;47.350;8.718;2024-02-28T02:41:06;9.19;73.01
69324;DHT22;56470;47.350;8.718;2024-02-28T02:43:31;9.18;73.24
69324;DHT22;56470;47.350;8.718;2024-02-28T02:45:57;9.16;73.38
69324;DHT22;56470;47.350;8.718;2024-02-28T02:48:22;9.11;73.49
69324;DHT22;56470;47.350;8.718;2024-02-28T02:50:47;9.07;73.60
69324;DHT22;56470;47.350;8.718;2024-02-28T02:53:13;9.07;73.29
69324;DHT22;56470;47.350;8.718;2024-02-28T02:55:38;9.07;73.50
69324;DHT22;56470;47.350;8.718;2024-02-28T02:58:03;9.04;73.45
69324;DHT22;56470;47.350;8.718;2024-02-28T03:00:29;9.01;73.66
69324;DHT22;56470;47.350;8.718;2024-02-28T03:02:54;9.00;73.49
69324;DHT22;56470;47.350;8.718;2024-02-28T03:05:20;9.00;73.77
69324;DHT22;56470;47.350;8.718;2024-02-28T03:07:45;8.98;73.69
69324;DHT22;56470;47.350;8.718;2024-02-28T03:10:10;9.02;73.74
69324;DHT22;56470;47.350;8.718;2024-02-28T03:12:36;9.02;73.24
69324;DHT22;56470;47.350;8.718;2024-02-28T03:15:02;9.02;73.46
69324;DHT22;56470;47.350;8.718;2024-02-28T03:17:28;9.01;73.10
69324;DHT22;56470;47.350;8.718;2024-02-28T03:19:54;8.98;73.72
69324;DHT22;56470;47.350;8.718;2024-02-28T03:22:19;9.02;73.60
69324;DHT22;56470;47.350;8.718;2024-02-28T03:24:44;9.04;73.22
69324;DHT22;56470;47.350;8.718;2024-02-28T03:27:10;9.01;73.46
69324;DHT22;56470;47.350;8.718;2024-02-28T03:29:35;9.02;73.50
69324;DHT22;56470;47.350;8.718;2024-02-28T03:32:00;9.02;73.55
69324;DHT22;56470;47.350;8.718;2024-02-28T03:34:26;9.02;73.40
69324;DHT22;56470;47.350;8.718;2024-02-28T03:36:51;9.04;73.44
69324;DHT22;56470;47.350;8.718;2024-02-28T03:39:16;9.07;73.54
69324;DHT22;56470;47.350;8.718;2024-02-28T03:41:42;9.07;73.66
69324;DHT22;56470;47.350;8.718;2024-02-28T03:44:08;9.04;73.60
69324;DHT22;56470;47.350;8.718;2024-02-28T03:46:33;9.04;73.38
69324;DHT22;56470;47.350;8.718;2024-02-28T03:48:58;9.02;73.58
69324;DHT22;56470;47.350;8.718;2024-02-28T03:51:24;9.02;73.70
69324;DHT22;56470;47.350;8.718;2024-02-28T03:53:49;9.01;73.77
69324;DHT22;56470;47.350;8.718;2024-02-28T03:56:24;8.97;73.66
69324;DHT22;56470;47.350;8.718;2024-02-28T03:58:50;9.02;73.75
69324;DHT22;56470;47.350;8.718;2024-02-28T04:01:16;8.98;73.88
69324;DHT22;56470;47.350;8.718;2024-02-28T04:03:41;9.02;73.80
69324;DHT22;56470;47.350;8.718;2024-02-28T04:06:07;9.00;73.84
69324;DHT22;56470;47.350;8.718;2024-02-28T04:08:32;8.97;73.92
69324;DHT22;56470;47.350;8.718;2024-02-28T04:10:57;9.00;73.77
69324;DHT22;56470;47.350;8.718;2024-02-28T04:13:22;8.97;73.86
69324;DHT22;56470;47.350;8.718;2024-02-28T04:15:48;8.98;73.89
69324;DHT22;56470;47.350;8.718;2024-02-28T04:18:13;8.97;73.92
69324;DHT22;56470;47.350;8.718;2024-02-28T04:20:38;8.98;73.45
69324;DHT22;56470;47.350;8.718;2024-02-28T04:23:04;8.92;73.65
69324;DHT22;56470;47.350;8.718;2024-02-28T04:25:29;8.88;73.80
69324;DHT22;56470;47.350;8.718;2024-02-28T04:27:55;8.85;73.87
69324;DHT22;56470;47.350;8.718;2024-02-28T04:30:22;8.83;73.84
69324;DHT22;56470;47.350;8.718;2024-02-28T04:32:47;8.83;74.19
69324;DHT22;56470;47.350;8.718;2024-02-28T04:35:12;8.89;74.04
69324;DHT22;56470;47.350;8.718;2024-02-28T04:37:40;8.89;74.10
69324;DHT22;56470;47.350;8.718;2024-02-28T04:40:06;8.98;74.07
69324;DHT22;56470;47.350;8.718;2024-02-28T04:42:32;8.98;74.05
69324;DHT22;56470;47.350;8.718;2024-02-28T04:44:57;9.07;73.96
69324;DHT22;56470;47.350;8.718;2024-02-28T04:47:22;9.00;73.82
69324;DHT22;56470;47.350;8.718;2024-02-28T04:49:48;9.00;73.98
69324;DHT22;56470;47.350;8.718;2024-02-28T04:52:13;9.04;73.97
69324;DHT22;56470;47.350;8.718;2024-02-28T04:54:40;9.11;73.82
69324;DHT22;56470;47.350;8.718;2024-02-28T04:57:05;9.12;73.76
69324;DHT22;56470;47.350;8.718;2024-02-28T04:59:31;9.18;73.81
69324;DHT22;56470;47.350;8.718;2024-02-28T05:01:57;9.18;73.63
69324;DHT22;56470;47.350;8.718;2024-02-28T05:04:22;9.21;73.53
69324;DHT22;56470;47.350;8.718;2024-02-28T05:06:48;9.19;73.46
69324;DHT22;56470;47.350;8.718;2024-02-28T05:09:14;9.19;73.46
69324;DHT22;56470;47.350;8.718;2024-02-28T05:11:39;9.18;73.39
69324;DHT22;56470;47.350;8.718;2024-02-28T05:14:05;9.14;73.45
69324;DHT22;56470;47.350;8.718;2024-02-28T05:16:30;9.08;73.54
69324;DHT22;56470;47.350;8.718;2024-02-28T05:18:55;9.04;73.65
69324;DHT22;56470;47.350;8.718;2024-02-28T05:21:22;8.97;73.59
69324;DHT22;56470;47.350;8.718;2024-02-28T05:23:47;8.97;73.59
69324;DHT22;56470;47.350;8.718;2024-02-28T05:26:12;8.98;73.53
69324;DHT22;56470;47.350;8.718;2024-02-28T05:28:38;8.94;73.40
69324;DHT22;56470;47.350;8.718;2024-02-28T05:33:46;8.84;73.30
69324;DHT22;56470;47.350;8.718;2024-02-28T05:36:11;8.80;73.35
69324;DHT22;56470;47.350;8.718;2024-02-28T05:38:37;8.73;73.34
69324;DHT22;56470;47.350;8.718;2024-02-28T05:41:02;8.66;73.37
69324;DHT22;56470;47.350;8.718;2024-02-28T05:43:27;8.67;73.41
69324;DHT22;56470;47.350;8.718;2024-02-28T05:45:53;8.71;73.34
69324;DHT22;56470;47.350;8.718;2024-02-28T05:48:18;8.70;73.24
69324;DHT22;56470;47.350;8.718;2024-02-28T05:50:44;8.68;73.19
69324;DHT22;56470;47.350;8.718;2024-02-28T05:53:09;8.67;73.18
69324;DHT22;56470;47.350;8.718;2024-02-28T05:55:34;8.70;73.14
69324;DHT22;56470;47.350;8.718;2024-02-28T05:57:59;8.70;73.01
69324;DHT22;56470;47.350;8.718;2024-02-28T06:00:26;8.70;73.04
69324;DHT22;56470;47.350;8.718;2024-02-28T06:02:52;8.68;72.75
69324;DHT22;56470;47.350;8.718;2024-02-28T06:05:18;8.68;72.57
69324;DHT22;56470;47.350;8.718;2024-02-28T06:07:43;8.64;72.93
69324;DHT22;56470;47.350;8.718;2024-02-28T06:10:08;8.70;72.95
69324;DHT22;56470;47.350;8.718;2024-02-28T06:12:35;8.70;72.72
69324;DHT22;56470;47.350;8.718;2024-02-28T06:15:01;8.71;72.58
69324;DHT22;56470;47.350;8.718;2024-02-28T06:17:26;8.66;72.57
69324;DHT22;56470;47.350;8.718;2024-02-28T06:19:51;8.63;72.79
69324;DHT22;56470;47.350;8.718;2024-02-28T06:22:16;8.64;72.75
69324;DHT22;56470;47.350;8.718;2024-02-28T06:24:45;8.70;72.39
69324;DHT22;56470;47.350;8.718;2024-02-28T06:27:10;8.68;72.52
69324;DHT22;56470;47.350;8.718;2024-02-28T06:29:38;8.67;72.39
69324;DHT22;56470;47.350;8.718;2024-02-28T06:32:03;8.68;72.55
69324;DHT22;56470;47.350;8.718;2024-02-28T06:34:29;8.73;72.48
69324;DHT22;56470;47.350;8.718;2024-02-28T06:36:54;8.74;72.34
69324;DHT22;56470;47.350;8.718;2024-02-28T06:39:20;8.76;72.36
69324;DHT22;56470;47.350;8.718;2024-02-28T06:41:45;8.76;72.27
69324;DHT22;56470;47.350;8.718;2024-02-28T06:44:10;8.78;72.13
69324;DHT22;56470;47.350;8.718;2024-02-28T06:46:36;8.76;72.11
69324;DHT22;56470;47.350;8.718;2024-02-28T06:49:02;8.74;71.92
69324;DHT22;56470;47.350;8.718;2024-02-28T06:51:27;8.70;72.04
69324;DHT22;56470;47.350;8.718;2024-02-28T06:53:53;8.74;72.06
69324;DHT22;56470;47.350;8.718;2024-02-28T06:56:18;8.73;71.85
69324;DHT22;56470;47.350;8.718;2024-02-28T06:58:43;8.74;71.89
69324;DHT22;56470;47.350;8.718;2024-02-28T07:01:09;8.68;71.73
69324;DHT22;56470;47.350;8.718;2024-02-28T07:03:34;8.70;71.72
69324;DHT22;56470;47.350;8.718;2024-02-28T07:05:59;8.67;71.73
69324;DHT22;56470;47.350;8.718;2024-02-28T07:08:25;8.64;71.53
69324;DHT22;56470;47.350;8.718;2024-02-28T07:10:50;8.60;71.32
69324;DHT22;56470;47.350;8.718;2024-02-28T07:13:19;8.52;71.44
69324;DHT22;56470;47.350;8.718;2024-02-28T07:15:45;8.53;71.44
69324;DHT22;56470;47.350;8.718;2024-02-28T07:18:10;8.56;71.51
69324;DHT22;56470;47.350;8.718;2024-02-28T07:20:36;8.56;71.43
69324;DHT22;56470;47.350;8.718;2024-02-28T07:23:01;8.52;71.40
69324;DHT22;56470;47.350;8.718;2024-02-28T07:25:26;8.57;71.39
69324;DHT22;56470;47.350;8.718;2024-02-28T07:27:51;8.61;71.28
69324;DHT22;56470;47.350;8.718;2024-02-28T07:30:17;8.59;71.11
69324;DHT22;56470;47.350;8.718;2024-02-28T07:32:42;8.63;71.13
69324;DHT22;56470;47.350;8.718;2024-02-28T07:35:08;8.66;71.00
69324;DHT22;56470;47.350;8.718;2024-02-28T07:37:33;8.66;70.78
69324;DHT22;56470;47.350;8.718;2024-02-28T07:39:59;8.63;70.57
69324;DHT22;56470;47.350;8.718;2024-02-28T07:42:26;8.66;70.62
69324;DHT22;56470;47.350;8.718;2024-02-28T07:44:52;8.67;70.42
69324;DHT22;56470;47.350;8.718;2024-02-28T07:47:22;8.70;70.32
69324;DHT22;56470;47.350;8.718;2024-02-28T07:49:47;8.70;70.30
69324;DHT22;56470;47.350;8.718;2024-02-28T07:52:16;8.74;70.37
69324;DHT22;56470;47.350;8.718;2024-02-28T07:54:41;8.85;70.24
69324;DHT22;56470;47.350;8.718;2024-02-28T07:57:08;8.92;69.70
69324;DHT22;56470;47.350;8.718;2024-02-28T07:59:39;8.95;69.49
69324;DHT22;56470;47.350;8.718;2024-02-28T08:02:04;9.05;69.05
69324;DHT22;56470;47.350;8.718;2024-02-28T08:04:30;9.08;68.83
69324;DHT22;56470;47.350;8.718;2024-02-28T08:06:56;9.05;68.82
69324;DHT22;56470;47.350;8.718;2024-02-28T08:09:21;9.04;68.73
69324;DHT22;56470;47.350;8.718;2024-02-28T08:11:47;9.02;68.64
69324;DHT22;56470;47.350;8.718;2024-02-28T08:14:13;9.04;68.65
69324;DHT22;56470;47.350;8.718;2024-02-28T08:16:38;9.08;68.58
69324;DHT22;56470;47.350;8.718;2024-02-28T08:19:04;9.12;68.49
69324;DHT22;56470;47.350;8.718;2024-02-28T08:21:29;9.08;68.44
69324;DHT22;56470;47.350;8.718;2024-02-28T08:23:54;9.10;68.31
69324;DHT22;56470;47.350;8.718;2024-02-28T08:26:20;9.10;68.01
69324;DHT22;56470;47.350;8.718;2024-02-28T08:28:45;9.10;67.99
69324;DHT22;56470;47.350;8.718;2024-02-28T08:31:10;9.08;67.94
69324;DHT22;56470;47.350;8.718;2024-02-28T08:33:36;9.14;68.14
69324;DHT22;56470;47.350;8.718;2024-02-28T08:36:01;9.21;67.92
69324;DHT22;56470;47.350;8.718;2024-02-28T08:38:27;9.28;67.91
69324;DHT22;56470;47.350;8.718;2024-02-28T08:40:53;9.32;67.82
69324;DHT22;56470;47.350;8.718;2024-02-28T08:43:18;9.33;67.59
69324;DHT22;56470;47.350;8.718;2024-02-28T08:45:43;9.36;67.46
69324;DHT22;56470;47.350;8.718;2024-02-28T08:48:09;9.32;67.50
69324;DHT22;56470;47.350;8.718;2024-02-28T08:50:34;9.36;67.60
69324;DHT22;56470;47.350;8.718;2024-02-28T08:53:00;9.36;67.50
69324;DHT22;56470;47.350;8.718;2024-02-28T08:55:25;9.38;67.32
69324;DHT22;56470;47.350;8.718;2024-02-28T08:57:50;9.35;67.39
69324;DHT22;56470;47.350;8.718;2024-02-28T09:00:16;9.33;67.46
69324;DHT22;56470;47.350;8.718;2024-02-28T09:02:42;9.33;67.36
69324;DHT22;56470;47.350;8.718;2024-02-28T09:05:08;9.33;67.44
69324;DHT22;56470;47.350;8.718;2024-02-28T09:07:34;9.36;67.34
69324;DHT22;56470;47.350;8.718;2024-02-28T09:10:03;9.39;67.34
69324;DHT22;56470;47.350;8.718;2024-02-28T09:12:28;9.38;67.34
69324;DHT22;56470;47.350;8.718;2024-02-28T09:14:54;9.33;67.38
69324;DHT22;56470;47.350;8.718;2024-02-28T09:17:23;9.32;67.34
69324;DHT22;56470;47.350;8.718;2024-02-28T09:19:48;9.35;67.38
69324;DHT22;56470;47.350;8.718;2024-02-28T09:22:13;9.35;67.41
69324;DHT22;56470;47.350;8.718;2024-02-28T09:24:40;9.38;67.42
69324;DHT22;56470;47.350;8.718;2024-02-28T09:27:05;9.39;67.39
69324;DHT22;56470;47.350;8.718;2024-02-28T09:29:31;9.40;67.34
69324;DHT22;56470;47.350;8.718;2024-02-28T09:31:56;9.44;67.34
69324;DHT22;56470;47.350;8.718;2024-02-28T09:34:21;9.47;67.36
69324;DHT22;56470;47.350;8.718;2024-02-28T09:36:47;9.54;67.26
69324;DHT22;56470;47.350;8.718;2024-02-28T09:39:13;9.53;67.27
69324;DHT22;56470;47.350;8.718;2024-02-28T09:41:40;9.57;67.21
69324;DHT22;56470;47.350;8.718;2024-02-28T09:44:07;9.56;67.19
69324;DHT22;56470;47.350;8.718;2024-02-28T09:46:33;9.53;67.41
69324;DHT22;56470;47.350;8.718;2024-02-28T09:49:02;9.56;67.36
69324;DHT22;56470;47.350;8.718;2024-02-28T09:51:28;9.54;67.51
69324;DHT22;56470;47.350;8.718;2024-02-28T09:53:55;9.58;67.48
69324;DHT22;56470;47.350;8.718;2024-02-28T09:56:23;9.63;67.46
69324;DHT22;56470;47.350;8.718;2024-02-28T09:58:49;9.64;67.24
69324;DHT22;56470;47.350;8.718;2024-02-28T10:01:15;9.69;67.18
69324;DHT22;56470;47.350;8.718;2024-02-28T10:03:44;9.70;67.13
69324;DHT22;56470;47.350;8.718;2024-02-28T10:06:09;9.67;67.30
69324;DHT22;56470;47.350;8.718;2024-02-28T10:08:34;9.58;67.58
69324;DHT22;56470;47.350;8.718;2024-02-28T10:11:02;9.43;67.70
69324;DHT22;56470;47.350;8.718;2024-02-28T10:13:27;9.30;67.82
69324;DHT22;56470;47.350;8.718;2024-02-28T10:15:53;9.11;68.56
69324;DHT22;56470;47.350;8.718;2024-02-28T10:18:20;8.92;69.61
69324;DHT22;56470;47.350;8.718;2024-02-28T10:20:45;8.87;69.61
69324;DHT22;56470;47.350;8.718;2024-02-28T10:23:10;8.92;69.97
69324;DHT22;56470;47.350;8.718;2024-02-28T10:25:46;8.89;69.79
69324;DHT22;56470;47.350;8.718;2024-02-28T10:28:12;8.91;70.12
69324;DHT22;56470;47.350;8.718;2024-02-28T10:30:42;9.08;70.02
69324;DHT22;56470;47.350;8.718;2024-02-28T10:33:15;9.30;69.64
69324;DHT22;56470;47.350;8.718;2024-02-28T10:35:41;9.50;69.27
69324;DHT22;56470;47.350;8.718;2024-02-28T10:38:10;9.63;68.91
69324;DHT22;56470;47.350;8.718;2024-02-28T10:40:36;9.69;68.85
69324;DHT22;56470;47.350;8.718;2024-02-28T10:43:02;9.75;68.79
69324;DHT22;56470;47.350;8.718;2024-02-28T10:45:30;9.85;68.62
69324;DHT22;56470;47.350;8.718;2024-02-28T10:47:56;9.99;68.43
69324;DHT22;56470;47.350;8.718;2024-02-28T10:50:22;10.01;68.07
69324;DHT22;56470;47.350;8.718;2024-02-28T10:52:48;10.03;68.03
69324;DHT22;56470;47.350;8.718;2024-02-28T10:55:20;10.05;67.99
69324;DHT22;56470;47.350;8.718;2024-02-28T10:57:58;10.05;67.97
69324;DHT22;56470;47.350;8.718;2024-02-28T11:00:25;10.12;67.88
69324;DHT22;56470;47.350;8.718;2024-02-28T11:02:50;10.12;67.75
69324;DHT22;56470;47.350;8.718;2024-02-28T11:05:16;10.18;67.66
69324;DHT22;56470;47.350;8.718;2024-02-28T11:07:41;10.18;67.67
69324;DHT22;56470;47.350;8.718;2024-02-28T11:10:08;10.19;67.65
69324;DHT22;56470;47.350;8.718;2024-02-28T11:12:35;10.23;67.52
69324;DHT22;56470;47.350;8.718;2024-02-28T11:15:03;10.22;67.41
69324;DHT22;56470;47.350;8.718;2024-02-28T11:17:32;10.25;67.35
69324;DHT22;56470;47.350;8.718;2024-02-28T11:19:58;10.20;67.30
69324;DHT22;56470;47.350;8.718;2024-02-28T11:22:23;10.22;67.23
69324;DHT22;56470;47.350;8.718;2024-02-28T11:24:49;10.22;67.14
69324;DHT22;56470;47.350;8.718;2024-02-28T11:27:18;10.19;67.08
69324;DHT22;56470;47.350;8.718;2024-02-28T11:29:44;10.16;67.01
69324;DHT22;56470;47.350;8.718;2024-02-28T11:32:12;10.12;67.16
69324;DHT22;56470;47.350;8.718;2024-02-28T11:34:38;10.12;67.15
69324;DHT22;56470;47.350;8.718;2024-02-28T11:37:06;10.08;67.09
69324;DHT22;56470;47.350;8.718;2024-02-28T11:39:31;10.05;67.06
69324;DHT22;56470;47.350;8.718;2024-02-28T11:42:15;10.02;66.84
69324;DHT22;56470;47.350;8.718;2024-02-28T11:44:41;10.02;67.18
69324;DHT22;56470;47.350;8.718;2024-02-28T11:47:09;10.02;67.26
69324;DHT22;56470;47.350;8.718;2024-02-28T11:49:38;10.06;67.26
69324;DHT22;56470;47.350;8.718;2024-02-28T11:52:06;10.05;67.18
69324;DHT22;56470;47.350;8.718;2024-02-28T11:54:32;10.01;67.18
69324;DHT22;56470;47.350;8.718;2024-02-28T11:56:57;9.92;67.28
69324;DHT22;56470;47.350;8.718;2024-02-28T11:59:25;9.84;67.48
69324;DHT22;56470;47.350;8.718;2024-02-28T12:01:51;9.80;67.57
69324;DHT22;56470;47.350;8.718;2024-02-28T12:04:17;9.87;67.70
69324;DHT22;56470;47.350;8.718;2024-02-28T12:06:43;9.91;67.74
69324;DHT22;56470;47.350;8.718;2024-02-28T12:09:11;9.97;67.70
69324;DHT22;56470;47.350;8.718;2024-02-28T12:11:37;10.03;67.64
69324;DHT22;56470;47.350;8.718;2024-02-28T12:14:07;10.11;67.54
69324;DHT22;56470;47.350;8.718;2024-02-28T12:16:36;10.15;67.44
69324;DHT22;56470;47.350;8.718;2024-02-28T12:19:12;10.18;67.32
69324;DHT22;56470;47.350;8.718;2024-02-28T12:21:38;10.19;67.32
69324;DHT22;56470;47.350;8.718;2024-02-28T12:24:08;10.25;67.27
69324;DHT22;56470;47.350;8.718;2024-02-28T12:26:39;10.28;67.15
69324;DHT22;56470;47.350;8.718;2024-02-28T12:29:05;10.30;67.22
69324;DHT22;56470;47.350;8.718;2024-02-28T12:31:30;10.35;67.18
69324;DHT22;56470;47.350;8.718;2024-02-28T12:33:56;10.42;67.11
69324;DHT22;56470;47.350;8.718;2024-02-28T12:36:21;10.42;66.96
69324;DHT22;56470;47.350;8.718;2024-02-28T12:38:47;10.40;66.96
69324;DHT22;56470;47.350;8.718;2024-02-28T12:41:12;10.39;66.90
69324;DHT22;56470;47.350;8.718;2024-02-28T12:43:38;10.39;66.90
69324;DHT22;56470;47.350;8.718;2024-02-28T12:46:04;10.40;66.95
69324;DHT22;56470;47.350;8.718;2024-02-28T12:48:29;10.43;66.83
69324;DHT22;56470;47.350;8.718;2024-02-28T12:50:56;10.40;66.82
69324;DHT22;56470;47.350;8.718;2024-02-28T12:53:21;10.43;66.85
69324;DHT22;56470;47.350;8.718;2024-02-28T12:55:47;10.42;66.83
69324;DHT22;56470;47.350;8.718;2024-02-28T12:58:12;10.46;66.82
69324;DHT22;56470;47.350;8.718;2024-02-28T13:00:37;10.46;66.78
69324;DHT22;56470;47.350;8.718;2024-02-28T13:03:03;10.46;66.72
69324;DHT22;56470;47.350;8.718;2024-02-28T13:05:29;10.46;66.85
69324;DHT22;56470;47.350;8.718;2024-02-28T13:07:55;10.49;66.86
69324;DHT22;56470;47.350;8.718;2024-02-28T13:10:20;10.52;66.78
69324;DHT22;56470;47.350;8.718;2024-02-28T13:12:47;10.50;66.69
69324;DHT22;56470;47.350;8.718;2024-02-28T13:15:12;10.47;66.63
69324;DHT22;56470;47.350;8.718;2024-02-28T13:17:37;10.37;66.66
69324;DHT22;56470;47.350;8.718;2024-02-28T13:20:03;10.30;66.74
69324;DHT22;56470;47.350;8.718;2024-02-28T13:22:28;10.26;66.94
69324;DHT22;56470;47.350;8.718;2024-02-28T13:24:54;10.25;67.05
69324;DHT22;56470;47.350;8.718;2024-02-28T13:27:19;10.26;67.03
69324;DHT22;56470;47.350;8.718;2024-02-28T13:29:45;10.28;67.03
69324;DHT22;56470;47.350;8.718;2024-02-28T13:32:10;10.26;67.08
69324;DHT22;56470;47.350;8.718;2024-02-28T13:34:35;10.30;67.19
69324;DHT22;56470;47.350;8.718;2024-02-28T13:37:01;10.32;67.10
69324;DHT22;56470;47.350;8.718;2024-02-28T13:39:26;10.37;67.15
69324;DHT22;56470;47.350;8.718;2024-02-28T13:41:52;10.42;67.09
69324;DHT22;56470;47.350;8.718;2024-02-28T13:44:18;10.45;66.88
69324;DHT22;56470;47.350;8.718;2024-02-28T13:46:46;10.43;67.07
69324;DHT22;56470;47.350;8.718;2024-02-28T13:49:13;10.42;66.97
69324;DHT22;56470;47.350;8.718;2024-02-28T13:51:38;10.39;67.07
69324;DHT22;56470;47.350;8.718;2024-02-28T13:54:04;10.43;67.14
69324;DHT22;56470;47.350;8.718;2024-02-28T13:56:29;10.45;67.06
69324;DHT22;56470;47.350;8.718;2024-02-28T13:58:56;10.50;67.09
69324;DHT22;56470;47.350;8.718;2024-02-28T14:01:21;10.53;67.05
69324;DHT22;56470;47.350;8.718;2024-02-28T14:03:47;10.59;67.02
69324;DHT22;56470;47.350;8.718;2024-02-28T14:06:12;10.59;66.87
69324;DHT22;56470;47.350;8.718;2024-02-28T14:08:39;10.59;66.90
69324;DHT22;56470;47.350;8.718;2024-02-28T14:11:04;10.56;66.81
69324;DHT22;56470;47.350;8.718;2024-02-28T14:13:29;10.53;66.88
69324;DHT22;56470;47.350;8.718;2024-02-28T14:15:55;10.53;66.85
69324;DHT22;56470;47.350;8.718;2024-02-28T14:18:20;10.52;66.79
69324;DHT22;56470;47.350;8.718;2024-02-28T14:20:46;10.45;66.96
69324;DHT22;56470;47.350;8.718;2024-02-28T14:23:11;10.46;67.08
69324;DHT22;56470;47.350;8.718;2024-02-28T14:25:36;10.42;66.79
69324;DHT22;56470;47.350;8.718;2024-02-28T14:28:02;10.33;67.04
69324;DHT22;56470;47.350;8.718;2024-02-28T14:30:27;10.22;67.36
69324;DHT22;56470;47.350;8.718;2024-02-28T14:32:54;10.06;67.71
69324;DHT22;56470;47.350;8.718;2024-02-28T14:35:19;9.99;67.85
69324;DHT22;56470;47.350;8.718;2024-02-28T14:37:44;9.91;68.27
69324;DHT22;56470;47.350;8.718;2024-02-28T14:40:10;9.88;67.97
69324;DHT22;56470;47.350;8.718;2024-02-28T14:42:43;9.85;68.12
69324;DHT22;56470;47.350;8.718;2024-02-28T14:45:11;9.83;68.37
69324;DHT22;56470;47.350;8.718;2024-02-28T14:47:37;9.83;68.46
69324;DHT22;56470;47.350;8.718;2024-02-28T14:50:03;9.91;68.48
69324;DHT22;56470;47.350;8.718;2024-02-28T14:52:29;9.99;68.35
69324;DHT22;56470;47.350;8.718;2024-02-28T14:54:54;9.92;68.53
69324;DHT22;56470;47.350;8.718;2024-02-28T14:57:20;9.84;68.60
69324;DHT22;56470;47.350;8.718;2024-02-28T14:59:45;9.87;68.64
69324;DHT22;56470;47.350;8.718;2024-02-28T15:02:11;9.91;68.49
69324;DHT22;56470;47.350;8.718;2024-02-28T15:04:37;9.91;68.46
69324;DHT22;56470;47.350;8.718;2024-02-28T15:07:03;9.83;68.44
69324;DHT22;56470;47.350;8.718;2024-02-28T15:09:28;9.78;68.69
69324;DHT22;56470;47.350;8.718;2024-02-28T15:11:53;9.66;68.87
69324;DHT22;56470;47.350;8.718;2024-02-28T15:14:19;9.63;69.19
69324;DHT22;56470;47.350;8.718;2024-02-28T15:16:45;9.69;69.19
69324;DHT22;56470;47.350;8.718;2024-02-28T15:19:10;9.74;69.05
69324;DHT22;56470;47.350;8.718;2024-02-28T15:21:35;9.80;69.06
69324;DHT22;56470;47.350;8.718;2024-02-28T15:24:02;9.81;69.08
69324;DHT22;56470;47.350;8.718;2024-02-28T15:26:29;9.77;69.00
69324;DHT22;56470;47.350;8.718;2024-02-28T15:28:55;9.74;69.21
69324;DHT22;56470;47.350;8.718;2024-02-28T15:31:20;9.69;69.39
69324;DHT22;56470;47.350;8.718;2024-02-28T15:33:47;9.63;69.59
69324;DHT22;56470;47.350;8.718;2024-02-28T15:36:13;9.54;69.88